Terminal Aerodrome Forecast
Issued by NWS

Home | Current Version | Previous Version | Text Only | Print | Product List | Glossary On
Versions: 1 2 3 4 5 6 7 8 9 10 11 12 13 14 15 16 17 18 19 20 21 22 23 24 25 26 27 28 29 30 31 32
000
FTUS42 KCAE 190523
TAFCUB
TAF
KCUB 190523Z 1906/2006 23012G24KT P6SM BKN035 WS010/22040KT
      TEMPO 1906/1908 30014G28KT 3SM SHRA OVC020
     FM190800 30012G22KT P6SM -RA OVC020
     FM191200 31010G16KT P6SM SCT035
     FM191800 30008KT P6SM SKC=

USA.gov is the U.S. government's official web portal to all federal, state and local government web resources and services.